M I D A S
Marine Information and Data Acquisition System
Tripno 443 of the Zeeleeuw from 2003-03-05 10:22:25 to 2003-03-05 15:07:28
Back to CruiseResearch ActivitiesStationsMapUnderway DataData graphs

EquipmentUnitsComment
TimeDGPSUTC
LatitudeDGPSDM.mWGS84
LongitudeDGPSDM.mWGS84
TemperatureSBE03/SBE38deg celciusITS90
ConductivitySBE21S/mITS90
SalinitySBE21 Practical Salinity Units
ChlorophylAChelsea fluorimeterg/lCalibrated in Aceton
Missing or incorrect values are displayed as -999
Sea surface data collected by the RV Zeeleeuw from 2003-03-05 10:22:25 to 2003-03-05 15:07:28
Time Latitude Longitude Temperature Conductivity Salinity ChlorophylA
2003-03-05 10:23:29 51°13.695 2°55.747 14.410686 0.087123 0.458955 -0.814958
2003-03-05 10:24:29 51°13.695 2°55.735 14.418805 0.087123 0.459067 -0.781249
2003-03-05 10:25:25 51°13.743 2°55.7 14.423982 0.087123 0.459131 -0.781249
2003-03-05 10:26:28 51°13.843 2°55.62 14.432099 0.087123 0.459229 -0.814958
2003-03-05 10:27:28 51°13.957 2°55.536 14.441048 0.087019 0.458738 -0.814958
2003-03-05 10:28:28 51°14.084 2°55.443 6.77428 0.087227 0.459284 0.331161
2003-03-05 10:29:29 51°14.215 2°55.322 7.428062 2.864603 27.732028 17.28699
2003-03-05 10:30:39 51°14.335 2°55.119 8.049522 2.675973 26.27627 16.612802
2003-03-05 10:31:44 51°14.41 2°54.848 7.432942 2.552712 24.927732 15.197007
2003-03-05 10:32:44 51°14.368 2°54.546 7.819029 2.729622 26.962647 14.421691
2003-03-05 10:33:44 51°14.276 2°54.243 7.424401 2.963221 29.685631 14.691366
2003-03-05 10:34:53 51°14.169 2°53.89 6.809625 3.071115 31.005523 14.590238
2003-03-05 10:35:52 51°14.077 2°53.586 6.622572 3.086065 31.217275 13.983469
2003-03-05 10:36:53 51°13.979 2°53.262 7.283137 3.097645 31.378285 13.005896
2003-03-05 10:37:53 51°13.866 2°52.927 6.894038 3.103751 31.444282 12.028324
2003-03-05 10:38:53 51°13.75 2°52.587 7.429624 3.11828 31.590906 10.949623
2003-03-05 10:39:55 51°13.632 2°52.233 6.933153 3.127755 31.673529 10.747366
2003-03-05 10:40:53 51°13.52 2°51.9 7.059045 3.129018 31.655175 10.275435
2003-03-05 10:42:00 51°13.392 2°51.515 7.034102 3.141547 31.790573 10.073178
2003-03-05 10:43:04 51°13.27 2°51.145 7.050257 3.157656 31.957931 9.904631
2003-03-05 10:44:04 51°13.151 2°50.802 7.03037 3.17366 32.122469 9.668665
2003-03-05 10:45:08 51°13.021 2°50.439 7.329983 3.174923 32.118523 9.567537
2003-03-05 10:46:09 51°12.899 2°50.094 7.511321 3.189454 32.269758 9.634956
2003-03-05 10:47:13 51°12.77 2°49.735 7.060664 3.213672 32.513791 9.331571
2003-03-05 10:48:13 51°12.648 2°49.399 7.069205 3.227045 32.640341 9.567537
2003-03-05 10:49:13 51°12.528 2°49.064 6.819382 3.229467 32.670824 10.309144
2003-03-05 10:50:12 51°12.414 2°48.731 6.9806 3.231257 32.699249 10.443982
2003-03-05 10:51:13 51°12.3 2°48.384 7.405802 3.231889 32.699645 10.713657
2003-03-05 10:52:17 51°12.181 2°48.021 7.06518 3.235153 32.712828 9.803503
2003-03-05 10:53:16 51°12.071 2°47.687 7.27619 3.250423 32.871376 10.174306
2003-03-05 10:54:17 51°11.957 2°47.342 7.300843 3.258847 32.949831 9.97205
2003-03-05 10:55:16 51°11.848 2°47.011 7.284849 3.259163 32.93068 9.668665
2003-03-05 10:56:20 51°11.733 2°46.646 7.146266 3.269799 33.031295 8.927059
2003-03-05 10:57:24 51°11.635 2°46.268 7.057326 3.278013 33.097149 8.151742
2003-03-05 10:58:28 51°11.576 2°45.871 7.212069 3.28212 33.111086 7.983195
2003-03-05 10:59:33 51°11.517 2°45.467 7.984961 3.299391 33.267955 7.207879
2003-03-05 11:00:33 51°11.462 2°45.094 6.980306 3.310659 33.345694 7.275298
2003-03-05 11:01:33 51°11.407 2°44.723 7.731554 3.31603 33.372682 7.309007
2003-03-05 11:02:33 51°11.352 2°44.355 6.921298 3.328563 33.481231 7.14046
2003-03-05 11:03:33 51°11.296 2°43.991 7.555954 3.321928 33.378464 7.376426
2003-03-05 11:04:33 51°11.231 2°43.632 7.581376 3.327825 33.414625 7.410136
2003-03-05 11:05:33 51°11.165 2°43.275 7.270955 3.335408 33.479646 7.679811
2003-03-05 11:06:33 51°11.099 2°42.92 7.941642 3.328878 33.401876 7.780939
2003-03-05 11:07:37 51°11.032 2°42.561 7.65612 3.338884 33.519202 7.848358
2003-03-05 11:08:37 51°10.998 2°42.301 7.611313 3.33762 33.512744 7.679811
2003-03-05 11:09:37 51°11.029 2°42.109 6.976275 3.338042 33.522519 7.679811
2003-03-05 11:10:37 51°11.08 2°42.044 7.217064 3.339305 33.532365 7.544973
2003-03-05 11:11:37 51°11.114 2°42.034 7.33619 3.340359 33.543252 6.702238
2003-03-05 11:12:37 51°11.134 2°42.034 7.612724 3.340885 33.551663 6.5674
2003-03-05 11:13:40 51°11.149 2°42.032 7.380604 3.338042 33.51659 6.634819
2003-03-05 11:14:36 51°11.161 2°42.029 7.312383 3.342676 33.559743 6.5674
2003-03-05 11:15:40 51°11.175 2°42.025 6.867357 3.344045 33.566518 6.668529
2003-03-05 11:16:37 51°11.187 2°42.019 7.466413 3.344045 33.569909 6.735947
2003-03-05 11:17:40 51°11.206 2°41.982 7.573926 3.343834 33.576042 6.668529
2003-03-05 11:18:37 51°11.181 2°41.847 7.24913 3.342781 33.574486 6.803366
2003-03-05 11:19:40 51°11.066 2°41.553 7.007824 3.341939 33.565096 6.702238
2003-03-05 11:20:40 51°10.951 2°41.239 7.487091 3.343624 33.584725 7.814648
2003-03-05 11:21:37 51°10.84 2°40.939 7.775064 3.343729 33.585899 7.511264
2003-03-05 11:22:39 51°10.72 2°40.612 7.782588 3.345625 33.601085 7.578683
2003-03-05 11:23:40 51°10.604 2°40.29 7.446362 3.346994 33.601912 6.870785
2003-03-05 11:24:40 51°10.489 2°39.974 7.406583 3.349522 33.611399 7.443845
2003-03-05 11:25:40 51°10.375 2°39.658 7.409415 3.3491 33.607556 7.511264
2003-03-05 11:26:40 51°10.265 2°39.343 7.423864 3.350891 33.622403 7.544973
2003-03-05 11:27:40 51°10.193 2°39.09 7.119004 3.353102 33.62921 6.904494
2003-03-05 11:28:40 51°10.152 2°38.917 7.532034 3.355525 33.642597 6.533691
2003-03-05 11:29:40 51°10.125 2°38.814 7.341469 3.356894 33.648501 6.196597
2003-03-05 11:30:41 51°10.122 2°38.805 7.472753 3.357947 33.647497 5.219024
2003-03-05 11:31:40 51°10.121 2°38.8 7.471095 3.35879 33.65178 5.758375
2003-03-05 11:32:49 51°10.121 2°38.794 7.7163 3.357104 33.632196 6.061759
2003-03-05 11:33:48 51°10.121 2°38.79 7.610145 3.359737 33.647912 5.792084
2003-03-05 11:34:49 51°10.121 2°38.787 7.45329 3.360896 33.656553 5.758375
2003-03-05 11:35:48 51°10.113 2°38.76 7.691467 3.361739 33.660834 5.792084
2003-03-05 11:36:52 51°10.026 2°38.528 7.589652 3.361949 33.660633 5.353862
2003-03-05 11:37:55 51°9.914 2°38.212 7.480313 3.36237 33.651764 5.724665
2003-03-05 11:39:03 51°9.784 2°37.874 7.569591 3.36237 33.639916 6.02805
2003-03-05 11:40:03 51°9.684 2°37.564 7.592233 3.364371 33.655367 6.398853
2003-03-05 11:41:03 51°9.574 2°37.264 7.480361 3.363107 33.623583 5.623537
2003-03-05 11:42:01 51°9.475 2°36.967 7.555321 3.362897 33.616177 5.724665
2003-03-05 11:43:01 51°9.394 2°36.65 7.600654 3.363002 33.61819 6.095469
2003-03-05 11:44:01 51°9.346 2°36.455 7.8069 3.363845 33.62416 5.960631
2003-03-05 11:45:03 51°9.319 2°36.34 7.76516 3.36416 33.614155 5.320153
2003-03-05 11:46:21 51°9.301 2°36.252 7.476655 3.364371 33.630002 5.690956
2003-03-05 11:47:21 51°9.306 2°36.262 7.479825 3.364266 33.627144 5.4887
2003-03-05 11:48:29 51°9.316 2°36.286 7.352122 3.364371 33.630847 6.061759
2003-03-05 11:49:29 51°9.324 2°36.306 7.314436 3.36395 33.628707 6.162888
2003-03-05 11:50:29 51°9.332 2°36.324 7.429136 3.364161 33.631889 5.825794
2003-03-05 11:51:29 51°9.341 2°36.341 7.224556 3.364161 33.637805 6.264016
2003-03-05 11:52:29 51°9.344 2°36.34 7.750593 3.363845 33.634299 6.162888
2003-03-05 11:53:29 51°9.329 2°36.19 7.997588 3.364371 33.633382 6.264016
2003-03-05 11:54:29 51°9.357 2°35.943 7.230039 3.364582 33.632339 6.264016
2003-03-05 11:55:29 51°9.437 2°35.704 7.595981 3.363318 33.62423 6.668529
2003-03-05 11:56:35 51°9.629 2°35.528 7.49967 3.359842 33.595798 7.780939
2003-03-05 11:57:33 51°9.852 2°35.48 7.711781 3.357209 33.557303 7.477554
2003-03-05 11:58:35 51°10.097 2°35.586 7.763267 3.356893 33.553798 7.882067
2003-03-05 11:59:36 51°10.319 2°35.776 7.565403 3.36732 33.672027 8.85964
2003-03-05 12:00:35 51°10.531 2°35.976 7.406876 3.374378 33.768183 8.82593
2003-03-05 12:01:36 51°10.744 2°36.199 7.975912 3.375115 33.78062 8.85964
2003-03-05 12:02:36 51°10.945 2°36.441 7.6903 3.372588 33.788226 8.589965
2003-03-05 12:03:36 51°11.155 2°36.66 7.800787 3.369744 33.80597 7.241589
2003-03-05 12:04:40 51°11.372 2°36.911 7.404826 3.366269 33.828692 6.735947
2003-03-05 12:05:41 51°11.539 2°37.164 7.305439 3.363636 33.804448 6.702238
2003-03-05 12:06:41 51°11.61 2°37.353 7.586731 3.362688 33.78107 6.938204
2003-03-05 12:07:45 51°11.663 2°37.451 8.200347 3.362266 33.769548 6.735947
2003-03-05 12:08:47 51°11.658 2°37.477 7.479825 3.363003 33.760715 5.724665
2003-03-05 12:09:45 51°11.658 2°37.505 7.3829 3.361213 33.757807 7.309007
2003-03-05 12:10:49 51°11.66 2°37.539 7.377673 3.359317 33.750313 7.983195
2003-03-05 12:11:49 51°11.665 2°37.573 7.378211 3.359423 33.753193 7.544973
2003-03-05 12:12:49 51°11.671 2°37.61 7.460803 3.358685 33.745824 7.848358
2003-03-05 12:13:54 51°11.712 2°37.677 7.425036 3.359317 33.753724 7.71352
2003-03-05 12:15:01 51°11.91 2°37.84 7.911713 3.360055 33.753417 8.455127
2003-03-05 12:16:01 51°12.133 2°38.01 7.385977 3.359844 33.745954 7.511264
2003-03-05 12:17:03 51°12.371 2°38.159 7.102278 3.35542 33.700904 7.039332
2003-03-05 12:18:08 51°12.621 2°38.311 7.501377 3.356895 33.721599 7.410136
2003-03-05 12:19:08 51°12.852 2°38.441 7.92203 3.359212 33.753403 7.848358
2003-03-05 12:20:08 51°13.078 2°38.4 7.96057 3.361424 33.797713 6.870785
2003-03-05 12:21:09 51°13.263 2°38.2 7.407999 3.355948 33.810126 5.758375
2003-03-05 12:22:09 51°13.414 2°37.954 7.211873 3.347733 33.810841 6.870785
2003-03-05 12:23:09 51°13.519 2°37.671 7.487774 3.347207 33.825575 6.938204
2003-03-05 12:24:09 51°13.523 2°37.355 6.911261 3.346259 33.82527 6.735947
2003-03-05 12:25:10 51°13.556 2°37.034 7.299669 3.346259 33.82613 6.971913
2003-03-05 12:26:09 51°13.596 2°36.726 7.193996 3.344258 33.826062 6.702238
2003-03-05 12:27:09 51°13.634 2°36.411 7.129596 3.347944 33.830401 5.758375
2003-03-05 12:28:16 51°13.657 2°36.149 7.147933 3.353737 33.854042 6.331435
2003-03-05 12:29:25 51°13.675 2°36.025 7.294387 3.358898 33.891207 6.904494
2003-03-05 12:30:25 51°13.67 2°35.971 7.318788 3.361952 33.905621 7.039332
2003-03-05 12:31:25 51°13.66 2°35.939 7.094134 3.364795 33.907352 6.095469
2003-03-05 12:32:25 51°13.659 2°35.912 7.050011 3.366165 33.91665 6.837076
2003-03-05 12:33:25 51°13.663 2°35.887 7.098157 3.368166 33.938173 7.848358
2003-03-05 12:34:29 51°13.671 2°35.896 7.218043 3.366375 33.918147 7.949486
2003-03-05 12:35:34 51°13.678 2°35.921 7.07004 3.368798 33.935783 7.477554
2003-03-05 12:36:37 51°13.684 2°35.948 7.318739 3.37101 33.951057 7.780939
2003-03-05 12:37:37 51°13.691 2°35.977 7.362725 3.371536 33.950067 7.342717
2003-03-05 12:38:38 51°13.699 2°36.009 7.363653 3.3728 33.959037 7.612392
2003-03-05 12:39:38 51°13.707 2°36.041 7.247466 3.373537 33.968137 7.578683
2003-03-05 12:40:39 51°13.704 2°35.984 7.44763 3.37122 33.943098 8.050614
2003-03-05 12:41:38 51°13.787 2°35.833 7.686752 3.372273 33.949713 7.915777
2003-03-05 12:42:39 51°13.964 2°35.918 7.848759 3.373432 33.955786 8.185452
2003-03-05 12:43:36 51°14.062 2°36.215 7.382997 3.372905 33.962793 8.016905
2003-03-05 12:44:41 51°14.134 2°36.639 7.586683 3.371958 33.962515 8.623674
2003-03-05 12:45:41 51°14.195 2°37.042 7.305684 3.372274 33.965188 8.28658
2003-03-05 12:46:41 51°14.257 2°37.447 7.42406 3.371747 33.96274 8.960768
2003-03-05 12:47:47 51°14.328 2°37.891 7.399211 3.369535 33.947467 8.927059
2003-03-05 12:48:47 51°14.394 2°38.293 7.272619 3.363426 33.915245 8.724802
2003-03-05 12:49:45 51°14.446 2°38.629 7.356813 3.358476 33.895954 8.016905
2003-03-05 12:50:45 51°14.481 2°38.875 7.263958 3.354053 33.880818 7.74723
2003-03-05 12:51:54 51°14.5 2°38.991 7.421863 3.351525 33.865394 7.410136
2003-03-05 12:52:53 51°14.526 2°39.016 7.336093 3.350156 33.849179 7.106751
2003-03-05 12:53:53 51°14.548 2°39.044 6.851648 3.350683 33.857667 7.309007
2003-03-05 12:54:53 51°14.568 2°39.073 7.171067 3.350156 33.853483 7.511264
2003-03-05 12:55:52 51°14.587 2°39.104 7.297126 3.349735 33.850481 7.578683
2003-03-05 12:56:53 51°14.63 2°39.266 7.816264 3.34805 33.833303 7.309007
2003-03-05 12:57:53 51°14.723 2°39.641 7.384414 3.350472 33.851001 7.983195
2003-03-05 12:58:53 51°14.823 2°40.03 7.30094 3.349419 33.83403 7.679811
2003-03-05 12:59:52 51°14.922 2°40.407 6.909835 3.34984 33.847358 7.578683
2003-03-05 13:00:52 51°15.024 2°40.787 6.879419 3.344469 33.823259 7.71352
2003-03-05 13:01:54 51°15.125 2°41.181 7.569932 3.338992 33.78847 6.904494
2003-03-05 13:02:53 51°15.225 2°41.55 7.419471 3.330883 33.733526 7.106751
2003-03-05 13:04:03 51°15.343 2°41.989 7.11768 3.325406 33.703806 7.646101
2003-03-05 13:05:03 51°15.452 2°42.363 7.264643 3.321615 33.677515 7.309007
2003-03-05 13:06:03 51°15.562 2°42.737 6.995983 3.317929 33.654973 7.814648
2003-03-05 13:07:02 51°15.672 2°43.105 7.39423 3.31477 33.6349 8.657383
2003-03-05 13:08:03 51°15.789 2°43.451 7.06415 3.312031 33.615256 9.129315
2003-03-05 13:09:03 51°15.855 2°43.66 7.151266 3.309714 33.588313 8.893349
2003-03-05 13:10:02 51°15.893 2°43.802 7.24683 3.308977 33.577437 8.792221
2003-03-05 13:11:08 51°15.912 2°43.846 7.376941 3.310135 33.571584 8.85964
2003-03-05 13:12:08 51°15.928 2°43.877 6.938514 3.310767 33.572684 9.028187
2003-03-05 13:13:08 51°15.944 2°43.911 7.625911 3.310978 33.572479 8.927059
2003-03-05 13:14:08 51°15.961 2°43.947 7.425817 3.311399 33.573785 8.556255
2003-03-05 13:15:15 51°15.982 2°43.993 6.954349 3.31182 33.574233 8.28658
2003-03-05 13:16:15 51°16.003 2°44.146 6.842783 3.312768 33.568594 8.118033
2003-03-05 13:17:13 51°15.916 2°44.351 7.29468 3.314137 33.575409 8.28658
2003-03-05 13:18:16 51°15.727 2°44.571 5.766482 3.317191 33.594296 8.960768
2003-03-05 13:19:17 51°15.53 2°44.768 5.86595 3.310345 33.440606 7.983195
2003-03-05 13:20:16 51°15.337 2°44.956 5.859648 3.330355 33.577744 7.544973
2003-03-05 13:21:15 51°15.145 2°45.145 5.862299 3.328459 33.587235 7.207879
2003-03-05 13:22:18 51°14.942 2°45.349 5.857597 3.327827 33.556286 5.893212
2003-03-05 13:23:19 51°14.738 2°45.526 5.823669 3.325931 33.566615 6.634819
2003-03-05 13:24:19 51°14.535 2°45.686 5.771993 3.323299 33.563583 8.084324
2003-03-05 13:25:19 51°14.327 2°45.843 5.736917 3.309187 33.467669 11.151879
2003-03-05 13:26:16 51°14.132 2°45.996 5.769889 3.296233 33.364071 11.08446
2003-03-05 13:27:20 51°13.914 2°46.165 5.938138 3.312978 33.467553 9.904631
2003-03-05 13:28:20 51°13.71 2°46.322 5.973552 3.334251 33.580421 12.028324
2003-03-05 13:29:20 51°13.505 2°46.484 7.550937 3.344046 33.651505 13.444118
2003-03-05 13:30:19 51°13.317 2°46.623 7.193065 3.343624 33.639135 12.938477
2003-03-05 13:31:16 51°13.191 2°46.681 7.459681 3.345309 33.609453 11.893486
2003-03-05 13:32:20 51°13.142 2°46.738 7.501523 3.346784 33.616545 10.848494
2003-03-05 13:33:19 51°13.152 2°46.769 7.343131 3.345941 33.602909 10.241725
2003-03-05 13:34:19 51°13.167 2°46.798 7.536906 3.34573 33.603108 10.275435
2003-03-05 13:35:19 51°13.182 2°46.826 7.259212 3.345941 33.605456 10.241725
2003-03-05 13:36:23 51°13.199 2°46.853 7.343424 3.345941 33.60206 10.241725
2003-03-05 13:37:23 51°13.224 2°46.827 7.341225 3.346362 33.610151 10.477691
2003-03-05 13:38:28 51°13.306 2°46.788 7.471095 3.347837 33.619789 10.208016
2003-03-05 13:39:28 51°13.39 2°46.919 7.552983 3.349522 33.628375 9.938341
2003-03-05 13:40:27 51°13.511 2°47.19 7.150972 3.346257 33.593699 10.208016
2003-03-05 13:41:28 51°13.641 2°47.546 7.578551 3.350154 33.641362 11.08446
2003-03-05 13:42:28 51°13.765 2°47.906 7.152737 3.348258 33.638931 11.590101
2003-03-05 13:43:32 51°13.89 2°48.297 7.331254 3.345731 33.635404 11.421554
2003-03-05 13:44:32 51°14.007 2°48.663 7.553324 3.345836 33.651049 11.11817
2003-03-05 13:45:39 51°14.138 2°49.073 7.522775 3.340991 33.619104 10.477691
2003-03-05 13:46:40 51°14.258 2°49.445 7.134156 3.340149 33.642071 9.769794
2003-03-05 13:47:39 51°14.373 2°49.802 7.717077 3.332356 33.588192 9.500118
2003-03-05 13:48:39 51°14.46 2°50.107 7.566572 3.314241 33.426415 8.893349
2003-03-05 13:49:40 51°14.469 2°50.204 7.432113 3.29718 33.283828 8.691093
2003-03-05 13:50:40 51°14.488 2°50.235 7.00861 3.281699 33.159526 8.488836
2003-03-05 13:51:39 51°14.506 2°50.265 6.844901 3.278119 33.129548 8.353999
2003-03-05 13:52:39 51°14.522 2°50.298 6.924397 3.277592 33.130405 8.28658
2003-03-05 13:53:37 51°14.538 2°50.33 7.282012 3.276012 33.115236 8.455127
2003-03-05 13:54:39 51°14.55 2°50.412 7.081327 3.27696 33.123324 8.28658
2003-03-05 13:55:39 51°14.646 2°50.603 7.271689 3.276855 33.123833 8.387708
2003-03-05 13:56:36 51°14.82 2°50.549 7.449485 3.267272 33.043422 8.556255
2003-03-05 13:57:39 51°15.036 2°50.369 7.008757 3.264534 33.015255 9.702375
2003-03-05 13:58:39 51°15.243 2°50.188 7.024574 3.258953 32.96784 10.208016
2003-03-05 13:59:40 51°15.457 2°50.009 7.253584 3.246527 32.871359 9.870922
2003-03-05 14:00:36 51°15.651 2°49.845 7.207074 3.269589 33.07784 8.016905
2003-03-05 14:01:47 51°15.886 2°49.621 7.34357 3.283069 33.209568 9.028187
2003-03-05 14:02:45 51°16.078 2°49.437 7.433138 3.278225 33.215417 10.005759
2003-03-05 14:03:45 51°16.278 2°49.251 7.518047 3.295285 33.359391 9.297862
2003-03-05 14:04:47 51°16.484 2°49.053 7.201931 3.312557 33.486699 7.612392
2003-03-05 14:05:52 51°16.68 2°48.818 7.417812 3.302131 33.420046 6.432563
2003-03-05 14:06:54 51°16.863 2°48.572 7.175379 3.303289 33.441582 8.522546
2003-03-05 14:07:57 51°17.048 2°48.327 6.988022 3.293179 33.3903 10.882204
2003-03-05 14:09:09 51°17.256 2°48.047 6.891676 3.277594 33.284909 10.578819
2003-03-05 14:10:19 51°17.39 2°47.921 6.641055 3.266958 33.211142 10.54511
2003-03-05 14:11:24 51°17.451 2°47.864 6.900042 3.258533 33.164737 9.668665
2003-03-05 14:12:33 51°17.483 2°47.849 6.649109 3.254532 33.134927 8.589965
2003-03-05 14:13:33 51°17.502 2°47.856 6.403381 3.253268 33.123222 8.421418
2003-03-05 14:14:44 51°17.523 2°47.867 6.88129 3.251373 33.106941 8.522546
2003-03-05 14:15:43 51°17.539 2°47.877 6.998046 3.25053 33.105098 8.927059
2003-03-05 14:16:44 51°17.568 2°47.84 6.389641 3.249899 33.103076 8.893349
2003-03-05 14:17:48 51°17.656 2°47.886 6.778077 3.249056 33.098677 9.837212
2003-03-05 14:18:49 51°17.774 2°48.152 6.695435 3.247055 33.08801 9.870922
2003-03-05 14:19:57 51°17.902 2°48.554 6.759485 3.24358 33.056427 10.477691
2003-03-05 14:21:09 51°18.021 2°48.999 7.152933 3.24 33.027049 10.275435
2003-03-05 14:22:09 51°18.116 2°49.37 6.861596 3.236525 32.999699 11.11817
2003-03-05 14:23:09 51°18.212 2°49.742 6.65973 3.23305 32.966386 11.623811
2003-03-05 14:24:13 51°18.317 2°50.132 7.005957 3.229996 32.935279 11.320426
2003-03-05 14:25:13 51°18.405 2°50.497 6.912295 3.227469 32.916061 10.174306
2003-03-05 14:26:13 51°18.447 2°50.747 6.747697 3.230839 32.937155 9.297862
2003-03-05 14:27:17 51°18.502 2°50.895 6.586826 3.230628 32.933078 8.387708
2003-03-05 14:28:16 51°18.532 2°50.99 6.569712 3.222625 32.843542 7.443845
2003-03-05 14:29:19 51°18.557 2°51.021 7.03425 3.213569 32.759037 7.14046
2003-03-05 14:30:17 51°18.578 2°51.037 7.040584 3.209989 32.728737 7.679811
2003-03-05 14:31:16 51°18.599 2°51.057 6.555118 3.212095 32.75168 7.612392
2003-03-05 14:32:16 51°18.621 2°51.082 6.754306 3.209884 32.73177 7.814648
2003-03-05 14:33:23 51°18.65 2°51.138 6.998341 3.209463 32.727012 7.342717
2003-03-05 14:34:23 51°18.615 2°51.319 7.184492 3.208831 32.713967 7.275298
2003-03-05 14:35:22 51°18.462 2°51.456 6.741086 3.194932 32.589833 7.612392
2003-03-05 14:36:29 51°18.247 2°51.645 6.661113 3.173242 32.405155 9.061896
2003-03-05 14:37:29 51°18.057 2°51.832 6.83697 3.191668 32.553799 9.500118
2003-03-05 14:38:30 51°17.865 2°52.024 7.049815 3.23842 32.959106 9.466409
2003-03-05 14:39:29 51°17.679 2°52.21 7.105172 3.272538 33.206724 8.792221
2003-03-05 14:40:30 51°17.488 2°52.403 7.532862 3.2817 33.279134 9.668665
2003-03-05 14:41:29 51°17.302 2°52.594 7.327587 3.27633 33.241715 10.443982
2003-03-05 14:42:33 51°17.118 2°52.845 6.899944 3.266641 33.172674 10.140597
2003-03-05 14:43:33 51°16.964 2°53.116 6.666448 3.261797 33.141937 10.376563
2003-03-05 14:44:33 51°16.808 2°53.39 7.198698 3.253373 33.079319 10.983332
2003-03-05 14:45:37 51°16.635 2°53.677 6.978045 3.245369 32.962898 10.848494
2003-03-05 14:46:41 51°16.473 2°53.949 7.047802 3.235786 32.846626 10.342853
2003-03-05 14:47:48 51°16.369 2°54.076 6.543538 3.222413 32.711346 9.533828
2003-03-05 14:48:49 51°16.316 2°54.117 6.932022 3.215779 32.649317 8.792221
2003-03-05 14:49:51 51°16.289 2°54.148 7.327392 3.208935 32.586569 8.589965
2003-03-05 14:50:50 51°16.278 2°54.185 7.009298 3.204197 32.537452 7.679811
2003-03-05 14:51:53 51°16.276 2°54.227 7.022708 3.199037 32.47442 7.14046
2003-03-05 14:52:59 51°16.283 2°54.269 6.749867 3.199142 32.463931 7.511264
2003-03-05 14:54:00 51°16.293 2°54.31 7.081622 3.198826 32.454548 7.74723
2003-03-05 14:55:11 51°16.31 2°54.357 7.08015 3.199142 32.448103 7.814648
2003-03-05 14:56:15 51°16.279 2°54.463 7.051386 3.198194 32.44162 7.679811
2003-03-05 14:57:27 51°16.124 2°54.582 7.369027 3.190087 32.379634 8.893349
2003-03-05 14:58:27 51°15.966 2°54.651 7.487725 3.180821 32.31535 10.140597
2003-03-05 14:59:29 51°15.797 2°54.713 7.217015 3.188823 32.3646 10.275435
2003-03-05 15:00:29 51°15.655 2°54.758 7.384658 3.202616 32.448841 9.702375
2003-03-05 15:01:30 51°15.497 2°54.802 7.207074 3.213988 32.533142 8.084324
2003-03-05 15:02:31 51°15.296 2°54.853 7.494405 3.231467 32.643188 8.960768
2003-03-05 15:03:30 51°15.099 2°54.9 7.288126 3.248947 32.785373 8.82593
2003-03-05 15:04:29 51°14.904 2°54.935 7.993718 3.297495 33.245069 9.601247
2003-03-05 15:05:29 51°14.706 2°54.959 7.948759 3.315715 33.398786 9.938341
2003-03-05 15:06:29 51°14.518 2°54.979 7.221961 3.300865 33.27514 10.747366